createdAt,value
2022-12-09T00:02:05.468Z,99015.50
2022-12-09T00:04:54.623Z,99021.56
2022-12-09T00:07:43.401Z,99020.00
2022-12-09T00:10:33.854Z,99016.69
2022-12-09T00:13:22.890Z,99014.22
2022-12-09T00:16:13.263Z,99008.41
2022-12-09T00:19:01.984Z,99007.63
2022-12-09T00:21:50.670Z,99011.09
2022-12-09T00:24:39.542Z,99005.22
2022-12-09T00:27:29.653Z,99008.66
2022-12-09T00:30:18.560Z,99003.63
2022-12-09T00:33:07.505Z,99013.78
2022-12-09T00:35:56.088Z,99007.97
2022-12-09T00:38:45.140Z,99009.72
2022-12-09T00:41:34.004Z,99002.19
2022-12-09T00:44:24.142Z,98997.25
2022-12-09T00:47:12.938Z,99006.59
2022-12-09T00:50:01.866Z,99006.59
2022-12-09T00:52:51.282Z,99003.22
2022-12-09T00:55:40.413Z,98993.91
2022-12-09T00:58:29.615Z,98992.25
2022-12-09T01:01:19.898Z,99006.69
2022-12-09T01:04:09.638Z,99002.47
2022-12-09T01:06:58.683Z,98997.44
2022-12-09T01:09:49.631Z,98998.25
2022-12-09T01:12:39.044Z,99009.31
2022-12-09T01:15:27.896Z,99000.88
2022-12-09T01:18:17.891Z,98999.16
2022-12-09T01:21:06.975Z,99009.31
2022-12-09T01:23:55.642Z,99005.88
2022-12-09T01:26:44.343Z,99009.31
2022-12-09T01:29:33.289Z,99006.00
2022-12-09T01:32:22.664Z,99010.38
2022-12-09T01:35:12.900Z,99008.78
2022-12-09T01:38:02.104Z,99008.00
2022-12-09T01:40:51.392Z,99002.19
2022-12-09T01:43:40.381Z,98995.50
2022-12-09T01:46:29.211Z,99001.50
2022-12-09T01:49:22.213Z,98995.66
2022-12-09T01:52:32.701Z,98990.63
2022-12-09T01:55:21.777Z,98989.84
2022-12-09T01:58:10.867Z,98996.63
2022-12-09T02:01:01.296Z,98985.66
2022-12-09T02:03:50.406Z,98980.59
2022-12-09T02:06:39.390Z,98988.28
2022-12-09T02:09:32.806Z,98984.03
2022-12-09T02:12:25.437Z,98981.50
2022-12-09T02:15:16.766Z,98982.28
2022-12-09T02:18:09.295Z,98977.16
2022-12-09T02:21:01.984Z,98972.06
2022-12-09T02:23:54.936Z,98971.22
2022-12-09T02:26:46.814Z,98968.72
2022-12-09T02:30:00.871Z,98973.78
2022-12-09T02:33:13.330Z,98966.97
2022-12-09T02:36:04.566Z,98967.78
2022-12-09T02:38:53.775Z,98958.38
2022-12-09T02:41:43.962Z,98956.63
2022-12-09T02:44:33.238Z,98949.81
2022-12-09T02:47:23.900Z,98948.91
2022-12-09T02:50:14.843Z,98943.03
2022-12-09T02:53:07.684Z,98937.16
2022-12-09T02:55:57.187Z,98929.53
2022-12-09T02:58:47.106Z,98942.28
2022-12-09T03:01:46.449Z,98934.75
2022-12-09T03:04:35.384Z,98920.34
2022-12-09T03:07:28.529Z,98925.47
2022-12-09T03:10:22.425Z,98915.38
2022-12-09T03:13:15.199Z,98912.94
2022-12-09T03:16:08.590Z,98912.16
2022-12-09T03:19:00.671Z,98894.47
2022-12-09T03:21:51.049Z,98894.44
2022-12-09T03:24:41.576Z,98894.28
2022-12-09T03:27:35.471Z,98888.28
2022-12-09T03:30:25.188Z,98891.59
2022-12-09T03:33:14.568Z,98889.00
2022-12-09T03:36:06.298Z,98890.72
2022-12-09T03:38:55.013Z,98883.09
2022-12-09T03:41:46.422Z,98888.25
2022-12-09T03:44:38.697Z,98887.44
2022-12-09T03:47:27.696Z,98883.31
2022-12-09T03:50:16.515Z,98882.53
2022-12-09T03:53:07.572Z,98881.81
2022-12-09T03:56:02.378Z,98883.50
2022-12-09T03:58:53.952Z,98880.16
2022-12-09T04:01:44.669Z,98879.34
2022-12-09T04:04:35.989Z,98886.03
2022-12-09T04:07:24.901Z,98880.16
2022-12-09T04:10:14.348Z,98878.50
2022-12-09T04:13:03.172Z,98881.09
2022-12-09T04:15:51.674Z,98894.66
2022-12-09T04:18:41.644Z,98888.78
2022-12-09T04:21:30.136Z,98892.13
2022-12-09T04:24:18.595Z,98878.50
2022-12-09T04:27:07.135Z,98876.63
2022-12-09T04:29:55.572Z,98876.41
2022-12-09T04:32:44.318Z,98871.22
2022-12-09T04:35:34.281Z,98868.47
2022-12-09T04:38:22.866Z,98864.88
2022-12-09T04:41:13.302Z,98865.56
2022-12-09T04:44:02.519Z,98864.53
2022-12-09T04:46:51.157Z,98864.41
2022-12-09T04:49:39.644Z,98856.69
2022-12-09T04:52:29.540Z,98858.38
2022-12-09T04:55:19.252Z,98851.47
2022-12-09T04:58:07.688Z,98848.88
2022-12-09T05:00:56.165Z,98858.16
2022-12-09T05:03:45.189Z,98849.72
2022-12-09T05:06:33.909Z,98853.09
2022-12-09T05:09:24.422Z,98848.91
2022-12-09T05:12:13.111Z,98838.88
2022-12-09T05:15:01.676Z,98837.25
2022-12-09T05:17:50.600Z,98835.53
2022-12-09T05:20:40.088Z,98833.00
2022-12-09T05:23:28.747Z,98832.91
2022-12-09T05:26:20.246Z,98825.25
2022-12-09T05:29:09.322Z,98830.22
2022-12-09T05:31:58.129Z,98829.28
2022-12-09T05:34:46.887Z,98824.19
2022-12-09T05:37:35.660Z,98818.19
2022-12-09T05:40:24.281Z,98812.19
2022-12-09T05:43:14.482Z,98811.28
2022-12-09T05:46:03.219Z,98810.34
2022-12-09T05:48:52.429Z,98803.53
2022-12-09T05:51:41.387Z,98805.22
2022-12-09T05:54:30.240Z,98805.13
2022-12-09T05:57:19.099Z,98805.13
2022-12-09T06:00:11.031Z,98805.09
2022-12-09T06:03:02.883Z,98798.31
2022-12-09T06:05:52.323Z,98800.84
2022-12-09T06:08:41.451Z,98795.84
2022-12-09T06:11:32.338Z,98800.97
2022-12-09T06:14:21.001Z,98791.00
2022-12-09T06:17:11.134Z,98790.34
2022-12-09T06:19:59.784Z,98790.50
2022-12-09T06:22:48.535Z,98797.31
2022-12-09T06:25:37.536Z,98798.28
2022-12-09T06:28:26.186Z,98793.31
2022-12-09T06:31:14.853Z,98800.13
2022-12-09T06:34:05.387Z,98799.41
2022-12-09T06:36:54.242Z,98792.72
2022-12-09T06:39:43.092Z,98791.09
2022-12-09T06:42:31.918Z,98791.13
2022-12-09T06:45:21.137Z,98792.91
2022-12-09T06:48:10.000Z,98797.13
2022-12-09T06:50:59.893Z,98789.59
2022-12-09T06:53:48.842Z,98795.56
2022-12-09T06:56:37.450Z,98790.53
2022-12-09T06:59:26.284Z,98799.03
2022-12-09T07:02:15.220Z,98795.69
2022-12-09T07:04:43.678Z,98787.28
2022-12-09T07:07:15.113Z,98789.88
2022-12-09T07:09:43.561Z,98789.06
2022-12-09T07:12:12.241Z,98798.38
2022-12-09T07:14:40.609Z,98800.13
2022-12-09T07:17:09.860Z,98798.47
2022-12-09T07:19:38.244Z,98796.78
2022-12-09T07:22:06.947Z,98794.22
2022-12-09T07:24:37.801Z,98800.03
2022-12-09T07:27:09.649Z,98794.81
2022-12-09T07:29:40.271Z,98798.16
2022-12-09T07:32:10.147Z,98801.50
2022-12-09T07:34:38.911Z,98788.81
2022-12-09T07:37:07.282Z,98786.25
2022-12-09T07:39:37.022Z,98787.97
2022-12-09T07:42:06.574Z,98787.94
2022-12-09T07:44:46.621Z,98786.19
2022-12-09T07:47:14.950Z,98789.47
2022-12-09T07:49:43.793Z,98785.09
2022-12-09T07:52:13.485Z,98784.97
2022-12-09T07:54:43.712Z,98787.41
2022-12-09T07:57:12.540Z,98789.81
2022-12-09T07:59:40.916Z,98785.41
2022-12-09T08:02:10.678Z,98790.44
2022-12-09T08:04:39.400Z,98780.97
2022-12-09T08:07:08.189Z,98777.44
2022-12-09T08:09:36.864Z,98774.00
2022-12-09T08:12:07.743Z,98767.13
2022-12-09T08:14:36.080Z,98770.34
2022-12-09T08:17:04.564Z,98770.22
2022-12-09T08:19:33.161Z,98772.56
2022-12-09T08:22:01.693Z,98771.47
2022-12-09T08:24:30.110Z,98767.78
2022-12-09T08:26:58.735Z,98773.53
2022-12-09T08:29:29.320Z,98771.56
2022-12-09T08:31:57.765Z,98773.91
2022-12-09T08:34:26.246Z,98773.72
2022-12-09T08:37:00.258Z,98777.00
2022-12-09T08:39:30.398Z,98771.63
2022-12-09T08:41:58.848Z,98775.69
2022-12-09T08:44:28.541Z,98768.84
2022-12-09T08:46:56.966Z,98767.03
2022-12-09T08:49:25.331Z,98761.84
2022-12-09T08:51:54.698Z,98743.91
2022-12-09T08:54:23.288Z,98749.41
2022-12-09T08:56:53.661Z,98742.00
2022-12-09T08:59:22.917Z,98745.75
2022-12-09T09:01:53.412Z,98744.59
2022-12-09T09:04:23.038Z,98740.13
2022-12-09T09:06:52.590Z,98742.38
2022-12-09T09:09:21.752Z,98741.59
2022-12-09T09:11:50.473Z,98740.81
2022-12-09T09:14:19.367Z,98739.94
2022-12-09T09:16:48.105Z,98747.31
2022-12-09T09:19:19.960Z,98742.84
2022-12-09T09:21:48.888Z,98739.22
2022-12-09T09:24:19.095Z,98736.31
2022-12-09T09:26:48.448Z,98727.16
2022-12-09T09:29:17.837Z,98724.38
2022-12-09T09:31:48.687Z,98722.63
2022-12-09T09:34:19.158Z,98724.56
2022-12-09T09:36:47.653Z,98721.16
2022-12-09T09:39:16.066Z,98717.81
2022-12-09T09:41:50.161Z,98716.69
2022-12-09T09:44:24.086Z,98722.06
2022-12-09T09:46:54.525Z,98718.63
2022-12-09T09:49:31.123Z,98717.44
2022-12-09T09:51:59.839Z,98701.97
2022-12-09T09:54:28.653Z,98702.97
2022-12-09T09:57:00.790Z,98689.88
2022-12-09T09:59:38.373Z,98678.94
2022-12-09T10:02:18.301Z,98685.16
2022-12-09T10:04:59.092Z,98684.63
2022-12-09T10:07:34.812Z,98684.31
2022-12-09T10:10:12.174Z,98676.13
2022-12-09T10:12:45.253Z,98670.94
2022-12-09T10:15:16.042Z,98674.72
2022-12-09T10:17:49.075Z,98670.06
2022-12-09T10:20:21.550Z,98667.34
2022-12-09T10:22:53.530Z,98662.75
2022-12-09T10:25:25.112Z,98663.66
2022-12-09T10:27:56.824Z,98663.44
2022-12-09T10:30:29.970Z,98668.09
2022-12-09T10:33:02.175Z,98659.66
2022-12-09T10:35:32.922Z,98657.66
2022-12-09T10:38:08.305Z,98651.06
2022-12-09T10:40:38.839Z,98651.63
2022-12-09T10:43:38.837Z,98639.25
2022-12-09T10:46:18.774Z,98646.09
2022-12-09T10:48:54.063Z,98637.41
2022-12-09T10:51:25.977Z,98635.38
2022-12-09T10:53:56.184Z,98645.34
2022-12-09T10:56:27.588Z,98638.72
2022-12-09T10:59:11.540Z,98632.72
2022-12-09T11:01:51.768Z,98629.69
2022-12-09T11:04:25.131Z,98643.94
2022-12-09T11:06:59.770Z,98640.81
2022-12-09T11:09:30.134Z,98633.28
2022-12-09T11:11:59.432Z,98639.34
2022-12-09T11:14:33.470Z,98639.34
2022-12-09T11:17:12.912Z,98632.91
2022-12-09T11:19:41.813Z,98634.88
2022-12-09T11:22:26.096Z,98633.91
2022-12-09T11:24:56.740Z,98638.97
2022-12-09T11:27:28.933Z,98639.13
2022-12-09T11:30:13.062Z,98643.81
2022-12-09T11:32:59.823Z,98638.53
2022-12-09T11:35:39.118Z,98628.19
2022-12-09T11:38:19.323Z,98637.38
2022-12-09T11:41:02.972Z,98627.75
2022-12-09T11:43:39.180Z,98620.28
2022-12-09T11:46:22.418Z,98620.88
2022-12-09T11:48:56.182Z,98626.19
2022-12-09T11:51:26.858Z,98628.34
2022-12-09T11:54:03.365Z,98615.91
2022-12-09T11:56:32.087Z,98615.31
2022-12-09T11:59:03.247Z,98613.03
2022-12-09T12:01:40.381Z,98619.28
2022-12-09T12:04:11.126Z,98614.41
2022-12-09T12:06:48.914Z,98613.66
2022-12-09T12:09:24.971Z,98595.44
2022-12-09T12:12:04.509Z,98606.88
2022-12-09T12:14:32.711Z,98599.25
2022-12-09T12:17:08.416Z,98612.56
2022-12-09T12:19:39.256Z,98614.59
2022-12-09T12:22:37.974Z,98609.25
2022-12-09T12:25:29.470Z,98601.44
2022-12-09T12:28:35.538Z,98613.34
2022-12-09T12:31:10.053Z,98604.59
2022-12-09T12:34:15.946Z,98605.56
2022-12-09T12:36:47.102Z,98609.44
2022-12-09T12:39:33.966Z,98623.34
2022-12-09T12:42:10.024Z,98611.06
2022-12-09T12:45:04.125Z,98613.38
2022-12-09T12:47:38.793Z,98610.97
2022-12-09T12:50:46.700Z,98614.34
2022-12-09T12:53:26.271Z,98612.16
2022-12-09T12:55:59.400Z,98611.50
2022-12-09T12:58:46.881Z,98621.22
2022-12-09T13:01:21.628Z,98617.00
2022-12-09T13:03:58.630Z,98610.25
2022-12-09T13:06:36.194Z,98608.28
2022-12-09T13:09:06.619Z,98612.06
2022-12-09T13:11:38.484Z,98607.09
2022-12-09T13:14:10.213Z,98605.56
2022-12-09T13:16:40.999Z,98605.41
2022-12-09T13:19:13.344Z,98606.16
2022-12-09T13:21:41.492Z,98608.72
2022-12-09T13:24:19.593Z,98609.66
2022-12-09T13:26:50.935Z,98606.16
2022-12-09T13:29:31.980Z,98604.59
2022-12-09T13:32:12.331Z,98599.69
2022-12-09T13:34:42.610Z,98593.94
2022-12-09T13:37:52.346Z,98599.28
2022-12-09T13:40:35.223Z,98592.69
2022-12-09T13:43:19.553Z,98583.59
2022-12-09T13:45:52.177Z,98595.53
2022-12-09T13:48:48.218Z,98599.97
2022-12-09T13:51:17.138Z,98596.56
2022-12-09T13:53:52.343Z,98603.50
2022-12-09T13:56:27.220Z,98600.28
2022-12-09T13:59:41.486Z,98600.59
2022-12-09T14:02:26.495Z,98595.53
2022-12-09T14:05:02.778Z,98598.09
2022-12-09T14:07:36.427Z,98604.03
2022-12-09T14:10:05.923Z,98604.03
2022-12-09T14:13:04.574Z,98599.06
2022-12-09T14:15:40.409Z,98599.25
2022-12-09T14:18:32.664Z,98610.44
2022-12-09T14:21:30.470Z,98611.34
2022-12-09T14:24:34.326Z,98604.69
2022-12-09T14:27:16.822Z,98609.03
2022-12-09T14:29:53.897Z,98599.09
2022-12-09T14:32:29.937Z,98605.16
2022-12-09T14:35:07.083Z,98607.16
2022-12-09T14:37:54.913Z,98614.00
2022-12-09T14:40:50.544Z,98624.56
2022-12-09T14:43:47.026Z,98622.25
2022-12-09T14:46:27.275Z,98621.75
2022-12-09T14:48:58.084Z,98634.72
2022-12-09T14:51:33.258Z,98636.59
2022-12-09T14:54:03.651Z,98641.69
2022-12-09T14:56:32.317Z,98639.25
2022-12-09T14:59:04.527Z,98644.59
2022-12-09T15:01:52.394Z,98643.88
2022-12-09T15:04:31.075Z,98644.75
2022-12-09T15:07:15.580Z,98631.25
2022-12-09T15:09:52.645Z,98647.53
2022-12-09T15:12:22.948Z,98651.88
2022-12-09T15:14:55.626Z,98643.31
2022-12-09T15:17:28.421Z,98657.47
2022-12-09T15:20:01.396Z,98664.22
2022-12-09T15:22:33.202Z,98654.97
2022-12-09T15:25:03.038Z,98652.53
2022-12-09T15:27:31.450Z,98659.34
2022-12-09T15:29:59.617Z,98657.66
2022-12-09T15:32:30.230Z,98667.88
2022-12-09T15:35:16.805Z,98666.97
2022-12-09T15:37:46.295Z,98666.09
2022-12-09T15:40:16.633Z,98666.91
2022-12-09T15:42:45.324Z,98665.94
2022-12-09T15:45:14.773Z,98656.75
2022-12-09T15:47:45.268Z,98672.00
2022-12-09T15:50:18.209Z,98666.72
2022-12-09T15:52:51.684Z,98665.69
2022-12-09T15:55:22.206Z,98679.31
2022-12-09T15:57:50.713Z,98682.69
2022-12-09T16:00:19.733Z,98677.66
2022-12-09T16:02:48.027Z,98680.25
2022-12-09T16:05:22.633Z,98676.94
2022-12-09T16:07:56.786Z,98681.22
2022-12-09T16:10:27.050Z,98677.81
2022-12-09T16:13:10.155Z,98675.38
2022-12-09T16:15:47.716Z,98677.31
2022-12-09T16:18:23.140Z,98679.03
2022-12-09T16:21:23.768Z,98676.66
2022-12-09T16:23:55.427Z,98681.00
2022-12-09T16:26:28.902Z,98674.22
2022-12-09T16:28:58.949Z,98677.69
2022-12-09T16:31:27.218Z,98680.16
2022-12-09T16:33:55.408Z,98681.84
2022-12-09T16:36:27.172Z,98684.38
2022-12-09T16:39:33.721Z,98682.88
2022-12-09T16:42:03.180Z,98691.56
2022-12-09T16:44:35.920Z,98684.94
2022-12-09T16:47:12.989Z,98685.13
2022-12-09T16:49:42.415Z,98683.44
2022-12-09T16:52:13.741Z,98682.00
2022-12-09T16:54:44.001Z,98681.22
2022-12-09T16:57:16.000Z,98682.13
2022-12-09T16:59:44.687Z,98678.84
2022-12-09T17:02:22.550Z,98687.50
2022-12-09T17:04:50.714Z,98689.31
2022-12-09T17:07:18.922Z,98687.72
2022-12-09T17:09:48.367Z,98683.53
2022-12-09T17:12:16.677Z,98678.53
2022-12-09T17:14:44.900Z,98688.09
2022-12-09T17:17:13.148Z,98692.50
2022-12-09T17:19:42.138Z,98685.75
2022-12-09T17:22:10.289Z,98693.53
2022-12-09T17:24:38.513Z,98697.09
2022-12-09T17:27:08.008Z,98696.47
2022-12-09T17:29:37.210Z,98705.97
2022-12-09T17:32:06.310Z,98691.88
2022-12-09T17:34:34.628Z,98704.63
2022-12-09T17:37:02.811Z,98703.00
2022-12-09T17:39:31.710Z,98709.88
2022-12-09T17:41:59.903Z,98713.44
2022-12-09T17:44:29.436Z,98713.50
2022-12-09T17:46:57.618Z,98717.72
2022-12-09T17:49:25.801Z,98723.69
2022-12-09T17:51:53.952Z,98724.47
2022-12-09T17:54:22.129Z,98722.72
2022-12-09T17:56:50.289Z,98722.66
2022-12-09T17:59:18.936Z,98722.78
2022-12-09T18:01:48.459Z,98726.16
2022-12-09T18:04:16.707Z,98725.38
2022-12-09T18:06:46.232Z,98733.91
2022-12-09T18:09:15.957Z,98733.06
2022-12-09T18:11:44.219Z,98729.66
2022-12-09T18:14:12.420Z,98738.88
2022-12-09T18:16:40.654Z,98737.03
2022-12-09T18:19:14.769Z,98735.25
2022-12-09T18:21:43.243Z,98738.63
2022-12-09T18:24:11.440Z,98727.56
2022-12-09T18:26:41.955Z,98730.81
2022-12-09T18:29:10.872Z,98728.25
2022-12-09T18:31:39.754Z,98730.72
2022-12-09T18:34:09.248Z,98723.84
2022-12-09T18:36:37.540Z,98734.81
2022-12-09T18:39:05.721Z,98737.31
2022-12-09T18:41:34.207Z,98737.38
2022-12-09T18:44:05.404Z,98739.81
2022-12-09T18:46:35.599Z,98745.78
2022-12-09T18:49:05.975Z,98745.72
2022-12-09T18:51:35.593Z,98748.19
2022-12-09T18:54:03.748Z,98747.28
2022-12-09T18:56:32.349Z,98746.47
2022-12-09T18:59:08.961Z,98751.56
2022-12-09T19:01:40.356Z,98737.13
2022-12-09T19:04:12.276Z,98751.44
2022-12-09T19:06:43.410Z,98749.66
2022-12-09T19:09:12.858Z,98734.38
2022-12-09T19:11:41.736Z,98744.56
2022-12-09T19:14:10.130Z,98748.03
2022-12-09T19:16:38.443Z,98748.94
2022-12-09T19:19:10.064Z,98754.91
2022-12-09T19:21:38.857Z,98758.31
2022-12-09T19:24:13.465Z,98756.69
2022-12-09T19:26:42.585Z,98753.22
2022-12-09T19:29:11.368Z,98751.44
2022-12-09T19:31:41.176Z,98754.81
2022-12-09T19:34:13.387Z,98760.66
2022-12-09T19:36:41.738Z,98768.31
2022-12-09T19:39:11.577Z,98759.75
2022-12-09T19:41:41.425Z,98757.13
2022-12-09T19:44:10.733Z,98760.44
2022-12-09T19:46:39.340Z,98763.00
2022-12-09T19:49:07.665Z,98766.50
2022-12-09T19:51:35.772Z,98761.41
2022-12-09T19:54:04.016Z,98763.09
2022-12-09T19:56:33.580Z,98760.63
2022-12-09T19:59:01.807Z,98763.22
2022-12-09T20:01:31.730Z,98766.66
2022-12-09T20:04:13.567Z,98764.97
2022-12-09T20:06:47.977Z,98770.22
2022-12-09T20:09:19.243Z,98775.31
2022-12-09T20:11:48.772Z,98777.00
2022-12-09T20:14:17.020Z,98776.19
2022-12-09T20:16:45.211Z,98777.78
2022-12-09T20:19:13.438Z,98782.06
2022-12-09T20:21:41.697Z,98787.16
2022-12-09T20:24:10.095Z,98791.44
2022-12-09T20:26:38.698Z,98779.69
2022-12-09T20:29:10.423Z,98784.00
2022-12-09T20:31:39.271Z,98789.16
2022-12-09T20:34:09.289Z,98789.16
2022-12-09T20:36:38.175Z,98801.16
2022-12-09T20:39:14.952Z,98800.31
2022-12-09T20:41:44.363Z,98801.16
2022-12-09T20:44:14.482Z,98800.38
2022-12-09T20:46:46.353Z,98791.16
2022-12-09T20:49:14.612Z,98797.91
2022-12-09T20:51:45.071Z,98803.03
2022-12-09T20:54:13.533Z,98814.16
2022-12-09T20:56:41.998Z,98810.78
2022-12-09T20:59:11.580Z,98813.50
2022-12-09T21:01:41.194Z,98811.91
2022-12-09T21:04:27.960Z,98813.66
2022-12-09T21:07:16.835Z,98817.09
2022-12-09T21:10:06.994Z,98817.94
2022-12-09T21:12:55.711Z,98816.25
2022-12-09T21:15:44.140Z,98825.63
2022-12-09T21:18:34.710Z,98830.81
2022-12-09T21:21:24.197Z,98830.94
2022-12-09T21:24:12.804Z,98834.59
2022-12-09T21:27:01.628Z,98825.38
2022-12-09T21:29:50.228Z,98828.69
2022-12-09T21:32:39.379Z,98820.94
2022-12-09T21:35:29.134Z,98826.00
2022-12-09T21:38:17.576Z,98828.53
2022-12-09T21:41:07.597Z,98831.13
2022-12-09T21:43:56.143Z,98829.56
2022-12-09T21:46:44.627Z,98827.09
2022-12-09T21:49:34.745Z,98833.91
2022-12-09T21:52:24.509Z,98832.13
2022-12-09T21:55:12.974Z,98829.56
2022-12-09T21:58:01.387Z,98827.88
2022-12-09T22:00:49.857Z,98829.56
2022-12-09T22:03:38.426Z,98829.53
2022-12-09T22:06:26.942Z,98828.59
2022-12-09T22:09:17.462Z,98830.31
2022-12-09T22:12:06.870Z,98830.31
2022-12-09T22:14:55.750Z,98831.25
2022-12-09T22:17:44.169Z,98829.56
2022-12-09T22:21:15.470Z,98828.75
2022-12-09T22:23:41.149Z,98821.25
2022-12-09T22:26:31.197Z,98831.38
2022-12-09T22:29:19.596Z,98826.34
2022-12-09T22:32:08.008Z,98840.00
2022-12-09T22:34:56.479Z,98838.31
2022-12-09T22:37:44.866Z,98842.59
2022-12-09T22:40:33.243Z,98851.06
2022-12-09T22:43:24.281Z,98852.78
2022-12-09T22:46:14.181Z,98848.56
2022-12-09T22:49:05.898Z,98854.53
2022-12-09T22:51:59.146Z,98856.22
2022-12-09T22:54:49.011Z,98852.03
2022-12-09T22:57:37.867Z,98858.03
2022-12-09T23:00:27.635Z,98853.84
2022-12-09T23:03:16.589Z,98857.25
2022-12-09T23:06:05.532Z,98857.34
2022-12-09T23:08:54.013Z,98848.09
2022-12-09T23:11:42.449Z,98850.75
2022-12-09T23:14:30.848Z,98852.56
2022-12-09T23:17:20.564Z,98855.09
2022-12-09T23:20:10.363Z,98850.75
2022-12-09T23:22:58.872Z,98857.53
2022-12-09T23:25:47.425Z,98852.50
2022-12-09T23:28:36.957Z,98857.72
2022-12-09T23:31:27.004Z,98851.06
2022-12-09T23:34:16.799Z,98848.66
2022-12-09T23:37:05.204Z,98844.41
2022-12-09T23:39:55.323Z,98846.91
2022-12-09T23:42:43.694Z,98859.56
2022-12-09T23:45:32.085Z,98856.91
2022-12-09T23:48:20.479Z,98859.41
2022-12-09T23:51:13.965Z,98853.47
2022-12-09T23:54:03.516Z,98855.09
2022-12-09T23:56:51.903Z,98857.53
2022-12-09T23:59:40.385Z,98853.31
